Time;durP1;ratioP1;P1;durP2;ratioP2;P2;SDS_P1;SDS_P2;PMS_P1;PMS_P2;Temp;Humidity;BMP_temperature;BMP_pressure;BME280_temperature;BME280_humidity;BME280_pressure;Samples;Min_cycle;Max_cycle;Signal;HPM_P1;HPM_P2
2021/07/07 00:00:33;;;;;;;2.73;2.00;;;17.80;99.90;;;;;;5083868;28;20580;-84
2021/07/07 00:02:59;;;;;;;3.27;2.40;;;18.00;99.90;;;;;;5084122;28;20640;-84
2021/07/07 00:05:24;;;;;;;2.20;2.00;;;18.10;99.90;;;;;;5074097;28;20185;-84
2021/07/07 00:07:50;;;;;;;4.07;2.33;;;18.20;99.90;;;;;;5090052;28;20202;-84
2021/07/07 00:10:19;;;;;;;4.13;1.90;;;18.30;99.90;;;;;;5090734;28;20216;-82
2021/07/07 00:12:47;;;;;;;4.40;2.00;;;17.90;99.90;;;;;;5092190;28;20187;-83
2021/07/07 00:15:17;;;;;;;1.60;1.50;;;18.10;99.90;;;;;;5090179;28;20386;-84
2021/07/07 00:17:43;;;;;;;2.00;1.80;;;18.00;99.90;;;;;;5091340;28;20484;-83
2021/07/07 00:20:10;;;;;;;1.90;1.70;;;17.70;99.90;;;;;;5091999;28;20401;-84
2021/07/07 00:22:37;;;;;;;4.10;3.30;;;17.70;99.90;;;;;;5073534;28;20175;-84
2021/07/07 00:25:05;;;;;;;2.00;1.90;;;17.70;99.90;;;;;;5091283;28;20397;-84
2021/07/07 00:27:32;;;;;;;4.23;1.87;;;17.70;99.90;;;;;;5090918;28;20431;-84
2021/07/07 00:29:59;;;;;;;1.93;1.83;;;17.90;99.90;;;;;;5093236;28;20725;-82
2021/07/07 00:32:25;;;;;;;3.30;2.07;;;18.00;99.90;;;;;;5093819;28;20398;-84
2021/07/07 00:34:51;;;;;;;2.30;2.10;;;18.00;99.90;;;;;;5079749;28;20398;-82
2021/07/07 00:37:17;;;;;;;3.33;1.87;;;18.10;99.90;;;;;;5094787;28;20479;-83
2021/07/07 00:39:43;;;;;;;3.83;2.00;;;18.00;99.90;;;;;;5093818;28;20390;-82
2021/07/07 00:42:09;;;;;;;2.53;2.30;;;17.90;99.90;;;;;;5095166;28;20164;-82
2021/07/07 00:44:38;;;;;;;2.10;1.83;;;17.90;99.90;;;;;;5098053;28;20163;-82
2021/07/07 00:47:04;;;;;;;2.20;2.00;;;17.70;99.90;;;;;;5096747;28;20411;-84
2021/07/07 00:49:29;;;;;;;2.50;2.30;;;17.60;99.90;;;;;;5097117;28;20422;-82
2021/07/07 00:51:55;;;;;;;4.50;2.37;;;17.50;99.90;;;;;;5095585;28;20397;-82
2021/07/07 00:54:23;;;;;;;2.37;2.17;;;17.40;99.90;;;;;;5096520;28;20159;-82
2021/07/07 00:56:50;;;;;;;2.37;2.27;;;17.50;99.90;;;;;;5095766;28;20194;-82
2021/07/07 00:59:20;;;;;;;5.33;2.30;;;17.50;99.90;;;;;;5095885;28;20370;-82
2021/07/07 01:01:46;;;;;;;2.90;2.70;;;17.40;99.90;;;;;;5096295;28;20457;-82
2021/07/07 01:04:12;;;;;;;2.20;2.00;;;17.60;99.90;;;;;;5097426;28;20405;-83
2021/07/07 01:06:38;;;;;;;2.10;2.00;;;17.70;99.90;;;;;;5096623;28;20521;-82
2021/07/07 01:09:04;;;;;;;2.70;1.80;;;17.60;99.90;;;;;;5095240;28;20436;-82
2021/07/07 01:11:33;;;;;;;11.23;2.37;;;17.50;99.90;;;;;;5096232;28;20171;-82
2021/07/07 01:13:59;;;;;;;2.27;2.03;;;17.60;99.90;;;;;;5095592;28;20408;-81
2021/07/07 01:16:26;;;;;;;6.10;2.40;;;17.60;99.90;;;;;;5095427;28;20469;-82
2021/07/07 01:18:52;;;;;;;2.40;2.30;;;17.60;99.90;;;;;;5094774;28;20390;-84
2021/07/07 01:21:19;;;;;;;5.17;2.80;;;17.60;99.90;;;;;;5075348;28;20457;-83
2021/07/07 01:23:45;;;;;;;7.03;2.60;;;17.60;99.90;;;;;;5092703;28;20167;-82
2021/07/07 01:26:10;;;;;;;3.13;2.23;;;17.50;99.90;;;;;;5091968;28;20477;-82
2021/07/07 01:28:37;;;;;;;3.43;2.10;;;17.50;99.90;;;;;;5092922;28;20171;-83
2021/07/07 01:31:04;;;;;;;2.73;2.50;;;17.40;99.90;;;;;;5093406;28;20511;-83
2021/07/07 01:33:30;;;;;;;1.93;1.83;;;17.40;99.90;;;;;;5094342;28;20491;-81
2021/07/07 01:35:56;;;;;;;2.80;2.10;;;17.40;99.90;;;;;;5094143;28;20757;-81
2021/07/07 01:38:21;;;;;;;6.00;2.40;;;17.20;99.90;;;;;;5077220;28;20425;-80
2021/07/07 01:40:47;;;;;;;2.30;2.10;;;17.40;99.90;;;;;;5093989;28;20168;-82
2021/07/07 01:43:13;;;;;;;6.60;2.93;;;17.20;99.90;;;;;;5093236;28;20225;-80
2021/07/07 01:45:39;;;;;;;4.13;2.73;;;17.20;99.90;;;;;;5095428;28;20374;-80
2021/07/07 01:48:05;;;;;;;2.37;2.27;;;17.40;99.90;;;;;;5094168;28;20226;-81
2021/07/07 01:50:30;;;;;;;3.03;2.60;;;17.40;99.90;;;;;;5094242;28;20159;-80
2021/07/07 01:52:56;;;;;;;2.33;2.10;;;17.30;99.90;;;;;;5094199;28;20239;-81
2021/07/07 01:55:25;;;;;;;3.67;2.80;;;17.20;99.90;;;;;;5094459;28;20154;-80
2021/07/07 01:57:51;;;;;;;4.60;2.47;;;17.10;99.90;;;;;;5094736;28;20187;-81
2021/07/07 02:00:19;;;;;;;2.73;2.20;;;17.10;99.90;;;;;;5093922;28;20421;-82
2021/07/07 02:02:47;;;;;;;3.70;2.67;;;17.10;99.90;;;;;;5094935;28;20179;-80
2021/07/07 02:05:14;;;;;;;2.60;2.40;;;17.10;99.90;;;;;;5094972;28;20393;-80
2021/07/07 02:07:41;;;;;;;2.53;2.33;;;17.30;99.90;;;;;;5094866;28;20401;-81
2021/07/07 02:10:09;;;;;;;2.53;2.33;;;17.40;99.90;;;;;;5094615;28;20397;-80
2021/07/07 02:12:35;;;;;;;3.80;2.57;;;17.40;99.90;;;;;;5077764;28;20393;-80
2021/07/07 02:15:07;;;;;;;3.33;2.60;;;17.60;99.90;;;;;;5094861;28;20404;-81
2021/07/07 02:17:33;;;;;;;3.17;2.40;;;17.70;99.90;;;;;;5077633;28;20480;-83
2021/07/07 02:19:59;;;;;;;2.70;2.50;;;17.80;99.90;;;;;;5094323;28;20394;-83
2021/07/07 02:22:24;;;;;;;3.00;2.13;;;17.80;99.90;;;;;;5094488;28;20186;-82
2021/07/07 02:24:50;;;;;;;2.43;2.33;;;17.90;99.90;;;;;;5095054;28;20159;-82
2021/07/07 02:27:16;;;;;;;2.70;2.50;;;17.80;99.90;;;;;;5094304;28;20250;-83
2021/07/07 02:29:42;;;;;;;2.20;2.10;;;17.90;99.90;;;;;;5077244;28;20160;-82
2021/07/07 02:32:07;;;;;;;2.13;1.83;;;18.00;99.90;;;;;;5095618;28;20164;-81
2021/07/07 02:34:33;;;;;;;2.30;2.20;;;17.90;99.90;;;;;;5078513;28;20160;-82
2021/07/07 02:36:59;;;;;;;2.47;2.10;;;17.80;99.90;;;;;;5095131;28;20187;-82
2021/07/07 02:39:25;;;;;;;4.00;2.50;;;17.70;99.90;;;;;;5094590;28;20398;-81
2021/07/07 02:41:52;;;;;;;3.80;2.27;;;17.80;99.90;;;;;;5094926;28;20167;-82
2021/07/07 02:44:18;;;;;;;2.43;2.10;;;17.70;99.90;;;;;;5094539;28;20163;-81
2021/07/07 02:46:44;;;;;;;1.67;1.57;;;17.80;99.90;;;;;;5095275;28;20397;-82
2021/07/07 02:49:09;;;;;;;2.10;2.00;;;17.60;99.90;;;;;;5077053;28;20485;-83
2021/07/07 02:51:35;;;;;;;2.20;2.00;;;17.50;99.90;;;;;;5091597;28;20231;-84
2021/07/07 02:54:03;;;;;;;2.27;2.07;;;17.40;99.90;;;;;;5092894;28;20166;-82
2021/07/07 02:56:29;;;;;;;2.80;2.30;;;17.20;99.90;;;;;;5070349;28;20175;-84
2021/07/07 02:58:55;;;;;;;2.00;1.90;;;17.30;99.90;;;;;;5080388;28;20392;-84
2021/07/07 03:01:21;;;;;;;2.43;2.23;;;17.40;99.90;;;;;;5079816;28;20498;-84
2021/07/07 03:03:47;;;;;;;6.40;3.07;;;17.30;99.90;;;;;;5079136;28;20152;-84
2021/07/07 03:06:13;;;;;;;2.73;2.20;;;17.20;99.90;;;;;;5060737;28;20401;-84
2021/07/07 03:08:43;;;;;;;2.63;2.43;;;17.20;99.90;;;;;;5079653;28;20425;-84
2021/07/07 03:11:09;;;;;;;2.30;2.20;;;17.10;99.90;;;;;;5062310;28;20487;-84
2021/07/07 03:13:35;;;;;;;2.70;2.50;;;17.00;99.90;;;;;;5078967;28;20389;-84
2021/07/07 03:16:03;;;;;;;3.23;3.03;;;17.00;99.90;;;;;;5078683;28;20394;-84
2021/07/07 03:18:29;;;;;;;2.90;2.47;;;17.10;99.90;;;;;;5078171;28;20156;-84
2021/07/07 03:20:56;;;;;;;2.70;2.50;;;17.10;99.90;;;;;;5078312;28;20389;-84
2021/07/07 03:23:23;;;;;;;3.30;2.93;;;17.20;99.90;;;;;;5078309;28;20440;-84
2021/07/07 03:25:50;;;;;;;2.90;2.70;;;17.40;99.90;;;;;;5078414;28;20425;-84
2021/07/07 03:28:20;;;;;;;2.67;2.47;;;17.30;99.90;;;;;;5069686;28;20386;-82
2021/07/07 03:30:46;;;;;;;2.63;2.43;;;17.50;99.90;;;;;;5060941;28;20453;-81
2021/07/07 03:33:12;;;;;;;2.27;2.13;;;17.50;99.90;;;;;;5081415;28;20393;-84
2021/07/07 03:35:38;;;;;;;5.17;2.00;;;17.50;99.90;;;;;;5078781;28;20390;-84
2021/07/07 03:38:05;;;;;;;6.60;2.37;;;17.30;99.90;;;;;;5079384;28;20437;-84
2021/07/07 03:40:32;;;;;;;2.40;2.07;;;17.20;99.90;;;;;;5078195;28;20209;-84
2021/07/07 03:42:59;;;;;;;3.50;2.07;;;17.10;99.90;;;;;;5078413;28;20449;-84
2021/07/07 03:45:26;;;;;;;3.07;2.30;;;17.00;99.90;;;;;;5078055;28;20401;-84
2021/07/07 03:47:52;;;;;;;7.10;2.10;;;16.90;99.90;;;;;;5077905;28;20398;-84
2021/07/07 03:50:20;;;;;;;3.27;3.07;;;17.10;99.90;;;;;;5077806;28;20394;-84
2021/07/07 03:52:47;;;;;;;3.33;3.10;;;17.20;99.90;;;;;;5077575;28;20907;-84
2021/07/07 03:55:16;;;;;;;2.70;2.50;;;17.20;99.90;;;;;;5078397;28;20402;-84
2021/07/07 03:57:42;;;;;;;3.07;2.40;;;17.30;99.90;;;;;;5060776;28;20725;-84
2021/07/07 04:00:12;;;;;;;2.80;2.07;;;17.20;99.90;;;;;;5078097;28;20440;-84
2021/07/07 04:02:38;;;;;;;3.47;2.63;;;17.20;99.90;;;;;;5078365;28;20823;-84
2021/07/07 04:05:06;;;;;;;5.10;2.10;;;17.20;99.90;;;;;;5078312;28;20409;-84
2021/07/07 04:07:32;;;;;;;4.13;2.93;;;17.30;99.90;;;;;;5059528;28;20402;-84
2021/07/07 04:09:58;;;;;;;3.00;2.33;;;17.30;99.90;;;;;;5077858;28;20401;-84
2021/07/07 04:12:24;;;;;;;2.97;2.77;;;17.30;99.90;;;;;;5078463;28;20398;-84
2021/07/07 04:14:49;;;;;;;9.87;3.10;;;17.10;99.90;;;;;;5077943;28;20159;-84
2021/07/07 04:17:15;;;;;;;4.17;2.40;;;17.30;99.90;;;;;;5078852;28;20245;-84
2021/07/07 04:19:41;;;;;;;8.40;2.20;;;17.40;99.90;;;;;;5081887;28;20164;-84
2021/07/07 04:22:07;;;;;;;2.47;2.27;;;17.60;99.90;;;;;;5065267;28;20310;-84
2021/07/07 04:24:33;;;;;;;2.70;2.50;;;17.70;99.90;;;;;;5083682;28;20167;-82
2021/07/07 04:26:59;;;;;;;3.27;2.57;;;17.70;99.90;;;;;;5084381;28;20243;-83
2021/07/07 04:29:24;;;;;;;4.10;2.77;;;17.70;99.90;;;;;;5086254;28;20503;-84
2021/07/07 04:31:53;;;;;;;5.43;2.50;;;17.70;99.90;;;;;;5085015;28;20163;-84
2021/07/07 04:34:19;;;;;;;3.63;2.40;;;17.50;99.90;;;;;;5080802;28;20245;-82
2021/07/07 04:36:45;;;;;;;2.40;2.30;;;17.20;99.90;;;;;;5086810;28;20437;-84
2021/07/07 04:39:11;;;;;;;2.37;2.27;;;17.20;99.90;;;;;;5090883;28;20225;-84
2021/07/07 04:41:37;;;;;;;3.20;2.90;;;17.20;99.90;;;;;;5091412;28;20160;-84
2021/07/07 04:44:03;;;;;;;2.27;2.17;;;17.20;99.90;;;;;;5091972;28;20230;-84
2021/07/07 04:46:29;;;;;;;2.80;2.13;;;17.20;99.90;;;;;;5090515;28;20171;-84
2021/07/07 04:48:54;;;;;;;3.37;2.70;;;17.20;99.90;;;;;;5089338;28;20402;-83
2021/07/07 04:51:21;;;;;;;2.40;2.20;;;17.20;99.90;;;;;;5089262;28;20163;-85
2021/07/07 04:53:47;;;;;;;3.20;2.60;;;17.10;99.90;;;;;;5090300;28;20186;-84
2021/07/07 04:56:14;;;;;;;2.17;2.07;;;17.10;99.90;;;;;;5081330;28;20401;-86
2021/07/07 04:58:41;;;;;;;3.03;2.80;;;17.20;99.90;;;;;;5081457;28;20577;-84
2021/07/07 05:01:09;;;;;;;3.30;2.87;;;17.40;99.90;;;;;;5081659;28;20792;-84
2021/07/07 05:03:36;;;;;;;2.93;2.70;;;17.60;99.90;;;;;;5081513;28;20390;-84
2021/07/07 05:06:02;;;;;;;3.90;3.50;;;17.30;99.90;;;;;;5063420;28;20906;-84
2021/07/07 05:08:28;;;;;;;5.83;3.00;;;17.20;99.90;;;;;;5081607;28;20432;-84
2021/07/07 05:10:54;;;;;;;5.63;2.97;;;17.10;99.90;;;;;;5077959;28;20394;-84
2021/07/07 05:13:21;;;;;;;3.90;3.10;;;17.10;99.90;;;;;;5080726;28;20257;-84
2021/07/07 05:15:48;;;;;;;2.70;2.50;;;17.10;99.90;;;;;;5082545;28;20170;-84
2021/07/07 05:18:15;;;;;;;6.40;3.83;;;17.20;99.90;;;;;;5087765;28;20442;-84
2021/07/07 05:20:41;;;;;;;4.10;2.80;;;17.20;99.90;;;;;;5086686;28;20409;-84
2021/07/07 05:23:07;;;;;;;4.93;3.47;;;17.00;99.90;;;;;;5086360;28;20397;-84
2021/07/07 05:25:37;;;;;;;3.07;2.80;;;17.10;99.90;;;;;;5064251;28;20400;-84
2021/07/07 05:28:04;;;;;;;3.63;3.17;;;17.00;99.90;;;;;;5080851;28;20431;-84
2021/07/07 05:30:30;;;;;;;3.70;3.40;;;17.00;99.90;;;;;;5080510;28;20489;-84
2021/07/07 05:32:57;;;;;;;5.00;3.40;;;17.20;99.90;;;;;;5081929;28;20600;-85
2021/07/07 05:35:23;;;;;;;7.03;2.73;;;17.10;99.90;;;;;;5063588;28;20402;-85
2021/07/07 05:37:49;;;;;;;3.50;3.20;;;17.20;99.90;;;;;;5063479;28;20491;-84
2021/07/07 05:40:17;;;;;;;3.73;2.90;;;17.30;99.90;;;;;;5062478;28;20440;-85
2021/07/07 05:42:45;;;;;;;3.67;3.10;;;17.40;99.90;;;;;;5080993;28;20229;-84
2021/07/07 05:45:11;;;;;;;3.17;2.97;;;17.50;99.90;;;;;;5079777;28;20499;-83
2021/07/07 05:47:37;;;;;;;4.50;3.30;;;17.60;99.90;;;;;;5080584;28;20155;-84
2021/07/07 05:50:04;;;;;;;3.90;3.40;;;17.20;99.90;;;;;;5079828;28;20429;-84
2021/07/07 05:52:29;;;;;;;3.73;3.43;;;17.10;99.90;;;;;;5080147;28;20194;-84
2021/07/07 05:54:56;;;;;;;3.43;3.13;;;17.40;99.90;;;;;;5080930;28;20417;-85
2021/07/07 05:57:25;;;;;;;8.07;4.33;;;17.60;99.90;;;;;;5079799;28;20282;-84
2021/07/07 05:59:52;;;;;;;3.67;3.37;;;17.60;99.90;;;;;;5080302;28;20452;-84
2021/07/07 06:02:18;;;;;;;13.60;3.30;;;17.50;99.90;;;;;;5062239;28;20466;-84
2021/07/07 06:04:44;;;;;;;4.30;4.00;;;17.60;99.90;;;;;;5078785;28;20433;-84
2021/07/07 06:07:09;;;;;;;3.63;3.13;;;17.60;99.90;;;;;;5080203;28;20491;-84
2021/07/07 06:09:35;;;;;;;6.40;4.13;;;17.30;99.90;;;;;;5061559;28;20313;-85
2021/07/07 06:12:01;;;;;;;3.60;3.30;;;17.30;99.90;;;;;;5083583;28;20182;-84
2021/07/07 06:14:27;;;;;;;5.93;3.70;;;17.50;99.90;;;;;;5075845;28;20210;-82
2021/07/07 06:16:53;;;;;;;4.53;4.13;;;17.60;99.90;;;;;;5094361;28;20214;-82
2021/07/07 06:19:19;;;;;;;3.87;3.47;;;17.70;99.90;;;;;;5092893;28;20160;-82
2021/07/07 06:21:45;;;;;;;3.20;2.90;;;17.70;99.90;;;;;;5093502;28;20171;-84
2021/07/07 06:24:11;;;;;;;3.70;3.40;;;17.40;99.90;;;;;;5074586;28;20423;-83
2021/07/07 06:26:37;;;;;;;4.00;3.70;;;17.30;99.90;;;;;;5076417;28;20402;-82
2021/07/07 06:29:05;;;;;;;4.03;3.30;;;17.60;99.90;;;;;;5094764;28;20430;-83
2021/07/07 06:31:32;;;;;;;4.97;3.83;;;17.80;99.90;;;;;;5078324;28;20207;-82
2021/07/07 06:33:58;;;;;;;3.93;3.60;;;17.70;99.90;;;;;;5094415;28;20417;-83
2021/07/07 06:36:24;;;;;;;5.10;3.50;;;17.80;99.90;;;;;;5094062;28;20555;-83
2021/07/07 06:38:50;;;;;;;4.33;3.93;;;17.70;99.90;;;;;;5094101;28;20171;-82
2021/07/07 06:41:15;;;;;;;4.93;4.40;;;17.40;99.90;;;;;;5093267;28;20167;-88
2021/07/07 06:43:41;;;;;;;5.30;4.80;;;17.60;99.90;;;;;;5095338;28;20252;-84
2021/07/07 06:46:07;;;;;;;11.50;5.90;;;17.70;99.90;;;;;;5094119;28;20183;-84
2021/07/07 06:48:33;;;;;;;6.90;4.87;;;17.80;99.90;;;;;;5094403;28;20421;-84
2021/07/07 06:51:02;;;;;;;8.30;6.03;;;17.70;99.90;;;;;;5090930;28;20413;-86
2021/07/07 06:53:33;;;;;;;4.67;4.20;;;17.90;99.90;;;;;;5087594;28;20167;-85
2021/07/07 06:55:59;;;;;;;4.30;4.00;;;18.00;99.90;;;;;;5034279;28;20472;-85
2021/07/07 06:58:25;;;;;;;4.20;3.87;;;17.80;99.90;;;;;;5057908;28;20786;-85
2021/07/07 07:00:50;;;;;;;4.23;3.93;;;17.50;99.90;;;;;;5067312;28;20199;-83
2021/07/07 07:03:16;;;;;;;5.30;4.27;;;17.50;99.90;;;;;;5085306;28;20175;-84
2021/07/07 07:05:42;;;;;;;4.27;3.97;;;17.70;99.90;;;;;;5093688;28;20223;-83
2021/07/07 07:08:12;;;;;;;4.63;4.23;;;17.60;99.90;;;;;;5094102;28;20199;-83
2021/07/07 07:10:53;;;;;;;4.20;3.80;;;17.50;99.90;;;;;;5052569;28;20196;-83
2021/07/07 07:13:19;;;;;;;4.40;4.10;;;17.70;99.90;;;;;;5053155;28;20794;-83
2021/07/07 07:15:47;;;;;;;6.07;5.57;;;17.70;99.90;;;;;;5051558;28;20185;-83
2021/07/07 07:18:31;;;;;;;5.87;3.93;;;17.50;99.90;;;;;;5072368;28;20490;-84
2021/07/07 07:20:57;;;;;;;4.53;3.80;;;17.70;99.90;;;;;;5071527;28;20433;-83
2021/07/07 07:23:22;;;;;;;4.13;3.80;;;18.00;99.90;;;;;;5051822;28;20722;-82
2021/07/07 07:25:48;;;;;;;6.40;3.73;;;18.30;99.90;;;;;;5050830;28;20240;-83
2021/07/07 07:28:14;;;;;;;4.17;3.70;;;18.40;99.90;;;;;;5052201;28;20188;-83
2021/07/07 07:30:40;;;;;;;4.80;4.00;;;18.10;99.90;;;;;;5014453;28;20177;-83
2021/07/07 07:33:06;;;;;;;10.93;4.60;;;18.00;99.90;;;;;;5045916;28;20227;-84
2021/07/07 07:35:31;;;;;;;11.83;4.80;;;17.90;99.90;;;;;;5051322;28;20193;-82
2021/07/07 07:38:03;;;;;;;6.20;4.00;;;18.00;99.90;;;;;;5034552;28;20485;-84
2021/07/07 07:40:38;;;;;;;4.37;3.80;;;18.20;99.90;;;;;;5051162;28;20192;-84
2021/07/07 07:43:06;;;;;;;4.00;3.70;;;18.40;99.90;;;;;;5051900;28;20522;-85
2021/07/07 07:45:33;;;;;;;5.83;4.27;;;18.30;99.90;;;;;;5051362;28;20881;-83
2021/07/07 07:47:59;;;;;;;4.40;4.10;;;18.20;99.90;;;;;;5052248;28;20936;-85
2021/07/07 07:50:25;;;;;;;5.57;4.13;;;17.80;99.90;;;;;;5035569;28;20453;-84
2021/07/07 07:52:52;;;;;;;5.10;4.60;;;17.90;99.90;;;;;;5064329;28;20810;-84
2021/07/07 07:55:18;;;;;;;5.70;4.53;;;17.80;99.90;;;;;;5072114;28;20820;-83
2021/07/07 07:57:44;;;;;;;4.37;3.90;;;17.90;99.90;;;;;;5092551;28;20445;-84
2021/07/07 08:00:17;;;;;;;4.53;4.13;;;17.60;99.90;;;;;;5091831;28;20410;-84
2021/07/07 08:02:43;;;;;;;6.23;4.07;;;17.70;99.90;;;;;;5076060;28;20390;-83
2021/07/07 08:05:10;;;;;;;4.20;3.40;;;17.60;99.90;;;;;;5093200;28;20800;-83
2021/07/07 08:07:37;;;;;;;4.10;3.70;;;17.80;99.90;;;;;;5051513;28;20454;-83
2021/07/07 08:10:04;;;;;;;9.10;3.53;;;17.80;99.90;;;;;;4991577;28;20867;-84
2021/07/07 08:12:30;;;;;;;14.43;5.43;;;18.10;99.90;;;;;;4976182;28;20437;-85
2021/07/07 08:14:56;;;;;;;4.53;3.10;;;18.30;99.90;;;;;;4984145;28;20446;-84
2021/07/07 08:17:25;;;;;;;9.93;4.97;;;18.50;99.90;;;;;;4968506;28;20225;-85
2021/07/07 08:19:51;;;;;;;17.10;5.10;;;18.30;99.90;;;;;;4972233;28;20200;-85
2021/07/07 08:22:17;;;;;;;9.33;5.03;;;18.40;99.90;;;;;;5004607;28;20413;-85
2021/07/07 08:24:44;;;;;;;9.93;4.73;;;18.20;99.90;;;;;;4971550;28;20260;-86
2021/07/07 08:27:11;;;;;;;14.60;5.20;;;18.10;99.90;;;;;;4967696;28;20426;-86
2021/07/07 08:29:37;;;;;;;5.93;3.87;;;18.10;99.90;;;;;;4938468;29;20443;-85
2021/07/07 08:32:06;;;;;;;8.47;4.67;;;17.90;99.90;;;;;;4944171;29;20465;-86
2021/07/07 08:34:33;;;;;;;8.30;4.37;;;18.00;99.90;;;;;;4945860;29;20431;-86
2021/07/07 08:36:59;;;;;;;12.50;4.40;;;17.90;99.90;;;;;;4945400;29;20630;-85
2021/07/07 08:39:27;;;;;;;6.90;3.97;;;18.20;99.90;;;;;;4966766;28;20426;-85
2021/07/07 08:41:54;;;;;;;5.73;4.47;;;18.30;99.90;;;;;;5017610;28;20197;-85
2021/07/07 08:44:20;;;;;;;13.53;4.80;;;18.20;99.90;;;;;;5042732;28;20433;-86
2021/07/07 08:46:47;;;;;;;10.37;5.33;;;18.30;99.90;;;;;;5071368;28;20417;-85
2021/07/07 08:49:13;;;;;;;5.50;3.80;;;18.00;99.90;;;;;;5062553;28;20191;-85
2021/07/07 08:51:41;;;;;;;4.70;3.87;;;18.40;99.90;;;;;;5062657;28;20401;-85
2021/07/07 08:54:16;;;;;;;6.40;4.20;;;18.40;99.90;;;;;;5078895;28;20187;-85
2021/07/07 08:56:42;;;;;;;10.80;4.10;;;18.70;99.90;;;;;;5058582;28;20941;-84
2021/07/07 08:59:10;;;;;;;5.13;3.20;;;18.70;99.90;;;;;;5061570;28;20840;-86
2021/07/07 09:02:06;;;;;;;5.03;3.17;;;18.70;99.90;;;;;;5061167;28;20441;-85
2021/07/07 09:04:43;;;;;;;4.60;3.20;;;18.70;99.90;;;;;;5076683;28;20397;-83
2021/07/07 09:07:13;;;;;;;10.67;3.70;;;18.60;99.90;;;;;;5079434;28;20429;-85
2021/07/07 09:09:41;;;;;;;3.87;3.33;;;18.50;99.90;;;;;;5064795;28;20542;-85
2021/07/07 09:12:20;;;;;;;6.43;3.33;;;18.30;99.90;;;;;;5081423;28;20437;-85
2021/07/07 09:14:49;;;;;;;2.93;2.70;;;18.50;99.90;;;;;;5064542;28;20478;-86
2021/07/07 09:17:20;;;;;;;10.67;3.57;;;18.50;99.90;;;;;;5061682;28;20548;-84
2021/07/07 09:19:47;;;;;;;3.20;3.00;;;18.70;99.90;;;;;;5062037;28;20420;-85
2021/07/07 09:22:14;;;;;;;6.83;3.37;;;18.70;99.90;;;;;;5060550;28;20430;-86
2021/07/07 09:24:43;;;;;;;3.27;3.07;;;18.60;99.90;;;;;;5078438;28;20436;-82
2021/07/07 09:27:12;;;;;;;3.90;3.27;;;18.80;99.90;;;;;;5086070;28;20424;-84
2021/07/07 09:29:41;;;;;;;2.80;2.60;;;18.80;99.90;;;;;;5102271;28;20504;-84
2021/07/07 09:32:27;;;;;;;3.27;2.70;;;18.70;99.90;;;;;;5084102;28;20408;-84
2021/07/07 09:34:58;;;;;;;2.80;2.60;;;18.50;99.90;;;;;;5110490;28;20396;-85
2021/07/07 09:37:38;;;;;;;3.30;2.47;;;18.80;99.90;;;;;;5104432;28;20515;-85
2021/07/07 09:40:08;;;;;;;4.93;2.33;;;18.90;99.90;;;;;;5085128;28;20425;-86
2021/07/07 09:42:37;;;;;;;3.10;2.90;;;19.10;99.90;;;;;;5085121;28;20480;-85
2021/07/07 09:45:05;;;;;;;3.77;3.37;;;19.20;99.90;;;;;;5070221;28;20422;-85
2021/07/07 09:47:31;;;;;;;3.07;2.73;;;19.30;99.90;;;;;;5082103;28;20470;-85
2021/07/07 09:49:58;;;;;;;3.07;2.83;;;19.20;99.90;;;;;;5081061;28;20468;-84
2021/07/07 09:52:27;;;;;;;3.23;2.77;;;19.30;99.90;;;;;;5078199;28;20171;-84
2021/07/07 09:54:54;;;;;;;3.83;2.90;;;19.00;99.90;;;;;;5081533;28;20398;-85
2021/07/07 09:57:20;;;;;;;4.83;2.83;;;19.20;99.90;;;;;;5082084;28;20473;-85
2021/07/07 09:59:47;;;;;;;6.90;3.37;;;19.30;99.90;;;;;;5082397;28;20425;-85
2021/07/07 10:02:13;;;;;;;3.50;3.30;;;18.80;99.90;;;;;;5081948;28;20446;-85
2021/07/07 10:04:43;;;;;;;4.77;3.50;;;18.90;99.90;;;;;;5081262;28;20854;-85
2021/07/07 10:07:12;;;;;;;6.87;3.80;;;19.10;99.90;;;;;;5091056;28;20459;-84
2021/07/07 10:09:40;;;;;;;3.27;2.70;;;19.30;99.90;;;;;;5095744;28;20433;-85
2021/07/07 10:12:06;;;;;;;2.60;2.40;;;19.40;99.90;;;;;;5095955;28;20408;-85
2021/07/07 10:14:32;;;;;;;11.07;6.40;;;19.10;99.90;;;;;;5095304;28;20413;-84
2021/07/07 10:16:59;;;;;;;16.73;4.93;;;19.10;99.90;;;;;;5094337;28;20484;-85
2021/07/07 10:19:26;;;;;;;4.20;3.80;;;19.20;99.90;;;;;;5073745;28;20501;-85
2021/07/07 10:21:55;;;;;;;7.60;4.43;;;19.20;99.90;;;;;;5083668;28;20469;-83
2021/07/07 10:24:29;;;;;;;9.97;3.67;;;19.40;99.90;;;;;;5082824;28;20457;-83
2021/07/07 10:26:59;;;;;;;3.90;3.60;;;19.20;99.90;;;;;;5084295;28;20873;-84
2021/07/07 10:29:26;;;;;;;4.43;3.67;;;19.40;99.90;;;;;;5072718;28;20429;-84
2021/07/07 10:31:56;;;;;;;3.17;2.83;;;19.20;99.90;;;;;;5091971;28;20390;-83
2021/07/07 10:34:25;;;;;;;11.00;3.63;;;19.20;99.90;;;;;;5093454;28;20781;-84
2021/07/07 10:36:52;;;;;;;7.40;4.13;;;19.10;99.90;;;;;;5083810;28;20500;-82
2021/07/07 10:39:18;;;;;;;8.83;3.40;;;19.30;99.90;;;;;;5088064;28;20398;-84
2021/07/07 10:41:47;;;;;;;9.77;4.00;;;19.50;99.90;;;;;;5087514;28;20862;-84
2021/07/07 10:44:45;;;;;;;4.00;3.60;;;19.40;99.90;;;;;;5086827;28;20465;-84
2021/07/07 10:47:13;;;;;;;6.53;3.70;;;19.60;99.90;;;;;;5069440;28;20417;-83
2021/07/07 10:49:46;;;;;;;5.03;3.27;;;19.80;99.90;;;;;;5069840;28;20410;-84
2021/07/07 10:52:15;;;;;;;7.13;3.37;;;19.80;99.90;;;;;;5085506;28;20417;-83
2021/07/07 10:54:53;;;;;;;5.03;3.03;;;20.10;99.90;;;;;;5086986;28;20417;-83
2021/07/07 10:57:24;;;;;;;3.40;3.10;;;20.30;99.90;;;;;;5087412;28;20494;-84
2021/07/07 10:59:54;;;;;;;4.70;3.10;;;20.40;99.90;;;;;;5052392;28;20413;-84
2021/07/07 11:02:24;;;;;;;3.00;2.80;;;20.60;99.90;;;;;;5065291;28;20432;-83
2021/07/07 11:04:53;;;;;;;3.50;3.20;;;20.50;99.90;;;;;;5084380;28;20946;-84
2021/07/07 11:07:28;;;;;;;6.00;3.07;;;20.80;99.90;;;;;;5086650;28;20424;-84
2021/07/07 11:09:57;;;;;;;4.17;3.30;;;21.00;99.90;;;;;;5068685;28;20421;-84
2021/07/07 11:13:02;;;;;;;3.43;3.13;;;21.30;99.90;;;;;;5088042;28;20549;-84
2021/07/07 11:15:30;;;;;;;3.10;2.80;;;20.80;99.90;;;;;;5073032;28;20452;-84
2021/07/07 11:17:58;;;;;;;2.90;2.70;;;21.10;99.90;;;;;;5087219;28;20442;-84
2021/07/07 11:20:29;;;;;;;2.70;2.43;;;21.40;99.90;;;;;;5068275;28;20394;-84
2021/07/07 11:23:04;;;;;;;4.70;2.90;;;21.40;99.90;;;;;;5072062;28;20417;-84
2021/07/07 11:25:31;;;;;;;2.73;2.53;;;21.00;99.90;;;;;;5068812;28;20409;-84
2021/07/07 11:27:58;;;;;;;2.83;2.63;;;21.00;99.90;;;;;;5085381;28;20519;-84
2021/07/07 11:30:25;;;;;;;2.80;2.60;;;21.20;99.90;;;;;;5069114;28;20421;-84
2021/07/07 11:32:54;;;;;;;2.80;2.60;;;20.80;99.90;;;;;;5051225;28;20421;-84
2021/07/07 11:35:28;;;;;;;2.70;2.50;;;20.70;99.90;;;;;;5087393;28;20421;-84
2021/07/07 11:37:56;;;;;;;2.80;2.40;;;20.80;99.90;;;;;;5086906;28;20467;-84
2021/07/07 11:40:24;;;;;;;5.50;3.30;;;20.80;99.90;;;;;;5086946;28;20408;-84
2021/07/07 11:42:57;;;;;;;2.60;2.40;;;20.70;99.90;;;;;;5087285;28;20556;-84
2021/07/07 11:45:29;;;;;;;2.60;2.40;;;20.50;99.90;;;;;;5066475;28;20399;-84
2021/07/07 11:48:05;;;;;;;3.10;2.90;;;20.70;99.90;;;;;;5031789;28;20857;-85
2021/07/07 11:50:31;;;;;;;3.37;3.07;;;20.90;99.90;;;;;;5068230;28;20397;-84
2021/07/07 11:53:00;;;;;;;2.77;2.57;;;20.70;99.90;;;;;;5090667;28;20417;-84
2021/07/07 11:55:47;;;;;;;3.50;3.20;;;20.60;99.90;;;;;;5091012;28;20432;-84
2021/07/07 11:58:20;;;;;;;7.20;4.17;;;20.40;99.90;;;;;;5088136;28;20475;-84
2021/07/07 12:00:46;;;;;;;7.30;3.20;;;20.60;99.90;;;;;;5048891;28;20418;-80
2021/07/07 12:03:15;;;;;;;6.10;3.63;;;20.80;99.90;;;;;;5069872;28;20494;-84
2021/07/07 12:05:50;;;;;;;4.93;3.60;;;20.30;99.90;;;;;;5057359;28;20459;-84
2021/07/07 12:08:20;;;;;;;3.33;3.13;;;20.30;99.90;;;;;;5091100;28;20456;-84
2021/07/07 12:10:49;;;;;;;4.30;3.37;;;20.30;99.90;;;;;;5086616;28;20417;-84
2021/07/07 12:13:27;;;;;;;5.53;3.23;;;20.40;99.90;;;;;;5085712;28;20405;-85
2021/07/07 12:16:13;;;;;;;5.30;3.00;;;20.50;99.90;;;;;;5085225;28;20418;-85
2021/07/07 12:19:15;;;;;;;3.90;3.60;;;20.70;99.90;;;;;;5048842;28;20430;-84
2021/07/07 12:21:45;;;;;;;4.40;3.00;;;20.80;99.90;;;;;;5047017;28;20460;-85
2021/07/07 12:24:19;;;;;;;3.83;3.53;;;21.00;99.90;;;;;;5063249;28;20398;-85
2021/07/07 12:26:49;;;;;;;3.03;2.83;;;20.90;99.90;;;;;;5062669;28;20391;-85
2021/07/07 12:29:20;;;;;;;3.10;2.80;;;20.90;99.90;;;;;;5062551;28;20409;-84
2021/07/07 12:31:51;;;;;;;3.43;3.23;;;20.70;99.90;;;;;;5029304;28;20466;-84
2021/07/07 12:34:19;;;;;;;2.90;2.70;;;21.00;99.90;;;;;;5042824;28;20458;-84
2021/07/07 12:36:50;;;;;;;3.50;3.10;;;21.40;99.90;;;;;;5042847;28;20439;-85
2021/07/07 12:39:21;;;;;;;3.00;2.80;;;21.40;99.90;;;;;;5039946;28;20434;-85
2021/07/07 12:41:56;;;;;;;3.27;2.43;;;21.70;99.90;;;;;;5026431;28;20396;-85
2021/07/07 12:44:25;;;;;;;2.90;2.70;;;21.70;99.90;;;;;;5056546;28;20438;-84
2021/07/07 12:47:06;;;;;;;4.50;3.10;;;21.80;99.90;;;;;;5054320;28;20604;-84
2021/07/07 12:49:49;;;;;;;2.60;2.43;;;21.50;99.90;;;;;;5036384;28;20421;-82